Decoded Metar for LFRQ (QUIMPER in FRANCE) (IATA:UIP) | Meteo·Mobile Aviation Weather
aviador You're here:

LFRQ Decoded Metar

QUIMPER in FRANCE
Report Time2019-10-21 07:00:00
UTC Time2019-10-21 07:28:44
Flight Rules mvfr MVFR
Wind020° at 03 kt
W.Decomp.*RWY 10: 0.7 kt HW 2.9 kt LCW
Visibility9999 m
Phenomena:Shallow Fog
Clouds:N/A
Expected CloudBase > 400 ft AGL from Temp-Dew spread
Ceiling1,500 ft
Temp08°C (ISA -6)
Dew Point07°C (93% RH)
AAT6.2°C
QNH1018 hPa
Density Alt-492 ft
Elevation308 ft
Report Wrong Elevation
Raw Report
LFRQ 210700Z AUTO 02003KT CAVOK 08/07 Q1018 TEMPO 1500 MIFG
BKN015TCU=

Extra information for LFRQ:More info

Metar Taf Metar & Taf Last 4 Metars F.Rules Stats Wind Profile Meteogram Temp Stats Airport Information Weather charts Add Link Nearby VenuesMetar ALERT Operation Metar Decoded Social comments